sensor_id;sensor_type;location;lat;lon;timestamp;P1;durP1;ratioP1;P2;durP2;ratioP2
6626;SDS011;3349;49.830;8.748;2023-07-09T00:02:10;11.35;;;6.10;;
6626;SDS011;3349;49.830;8.748;2023-07-09T00:04:37;10.10;;;6.00;;
6626;SDS011;3349;49.830;8.748;2023-07-09T00:07:04;14.35;;;6.53;;
6626;SDS011;3349;49.830;8.748;2023-07-09T00:09:33;17.00;;;6.55;;
6626;SDS011;3349;49.830;8.748;2023-07-09T00:11:59;12.55;;;5.80;;
6626;SDS011;3349;49.830;8.748;2023-07-09T00:14:26;9.43;;;5.53;;
6626;SDS011;3349;49.830;8.748;2023-07-09T00:16:53;12.23;;;5.38;;
6626;SDS011;3349;49.830;8.748;2023-07-09T00:19:21;11.55;;;6.13;;
6626;SDS011;3349;49.830;8.748;2023-07-09T00:21:49;11.35;;;6.07;;
6626;SDS011;3349;49.830;8.748;2023-07-09T00:24:18;11.50;;;5.97;;
6626;SDS011;3349;49.830;8.748;2023-07-09T00:26:46;9.50;;;5.53;;
6626;SDS011;3349;49.830;8.748;2023-07-09T00:29:13;13.95;;;6.22;;
6626;SDS011;3349;49.830;8.748;2023-07-09T00:31:41;10.55;;;5.72;;
6626;SDS011;3349;49.830;8.748;2023-07-09T00:34:08;10.10;;;5.18;;
6626;SDS011;3349;49.830;8.748;2023-07-09T00:36:37;11.90;;;5.57;;
6626;SDS011;3349;49.830;8.748;2023-07-09T00:39:08;11.38;;;6.20;;
6626;SDS011;3349;49.830;8.748;2023-07-09T00:41:40;11.07;;;5.55;;
6626;SDS011;3349;49.830;8.748;2023-07-09T00:44:18;11.25;;;6.47;;
6626;SDS011;3349;49.830;8.748;2023-07-09T00:49:50;16.15;;;5.47;;
6626;SDS011;3349;49.830;8.748;2023-07-09T00:52:27;13.07;;;5.53;;
6626;SDS011;3349;49.830;8.748;2023-07-09T00:55:05;9.52;;;5.65;;
6626;SDS011;3349;49.830;8.748;2023-07-09T00:57:34;10.80;;;6.18;;
6626;SDS011;3349;49.830;8.748;2023-07-09T01:00:06;14.68;;;6.70;;
6626;SDS011;3349;49.830;8.748;2023-07-09T01:02:39;14.80;;;6.65;;
6626;SDS011;3349;49.830;8.748;2023-07-09T01:05:09;17.27;;;6.20;;
6626;SDS011;3349;49.830;8.748;2023-07-09T01:07:39;12.18;;;6.30;;
6626;SDS011;3349;49.830;8.748;2023-07-09T01:10:06;12.90;;;5.93;;
6626;SDS011;3349;49.830;8.748;2023-07-09T01:12:33;12.93;;;5.93;;
6626;SDS011;3349;49.830;8.748;2023-07-09T01:15:00;13.35;;;5.78;;
6626;SDS011;3349;49.830;8.748;2023-07-09T01:17:28;11.95;;;5.57;;
6626;SDS011;3349;49.830;8.748;2023-07-09T01:19:55;12.93;;;5.90;;
6626;SDS011;3349;49.830;8.748;2023-07-09T01:22:24;9.82;;;5.75;;
6626;SDS011;3349;49.830;8.748;2023-07-09T01:24:53;12.25;;;5.88;;
6626;SDS011;3349;49.830;8.748;2023-07-09T01:27:27;16.02;;;5.88;;
6626;SDS011;3349;49.830;8.748;2023-07-09T01:29:59;15.63;;;5.50;;
6626;SDS011;3349;49.830;8.748;2023-07-09T01:32:28;12.73;;;6.00;;
6626;SDS011;3349;49.830;8.748;2023-07-09T01:34:57;13.15;;;5.60;;
6626;SDS011;3349;49.830;8.748;2023-07-09T01:37:31;15.40;;;5.97;;
6626;SDS011;3349;49.830;8.748;2023-07-09T01:39:59;11.00;;;5.63;;
6626;SDS011;3349;49.830;8.748;2023-07-09T01:42:26;8.60;;;5.70;;
6626;SDS011;3349;49.830;8.748;2023-07-09T01:44:54;12.68;;;6.45;;
6626;SDS011;3349;49.830;8.748;2023-07-09T01:47:21;10.65;;;5.82;;
6626;SDS011;3349;49.830;8.748;2023-07-09T01:49:49;12.75;;;5.22;;
6626;SDS011;3349;49.830;8.748;2023-07-09T01:52:16;12.77;;;5.82;;
6626;SDS011;3349;49.830;8.748;2023-07-09T01:54:46;17.92;;;6.30;;
6626;SDS011;3349;49.830;8.748;2023-07-09T01:57:15;12.07;;;5.45;;
6626;SDS011;3349;49.830;8.748;2023-07-09T01:59:47;14.90;;;5.60;;
6626;SDS011;3349;49.830;8.748;2023-07-09T02:02:14;18.23;;;6.55;;
6626;SDS011;3349;49.830;8.748;2023-07-09T02:04:45;14.65;;;5.28;;
6626;SDS011;3349;49.830;8.748;2023-07-09T02:07:12;14.57;;;5.45;;
6626;SDS011;3349;49.830;8.748;2023-07-09T02:09:39;10.15;;;5.72;;
6626;SDS011;3349;49.830;8.748;2023-07-09T02:12:08;10.55;;;5.47;;
6626;SDS011;3349;49.830;8.748;2023-07-09T02:14:35;15.43;;;6.63;;
6626;SDS011;3349;49.830;8.748;2023-07-09T02:17:02;17.27;;;5.50;;
6626;SDS011;3349;49.830;8.748;2023-07-09T02:19:29;14.93;;;6.10;;
6626;SDS011;3349;49.830;8.748;2023-07-09T02:21:56;16.27;;;5.90;;
6626;SDS011;3349;49.830;8.748;2023-07-09T02:24:23;14.98;;;5.65;;
6626;SDS011;3349;49.830;8.748;2023-07-09T02:26:52;14.25;;;5.45;;
6626;SDS011;3349;49.830;8.748;2023-07-09T02:29:20;15.25;;;5.50;;
6626;SDS011;3349;49.830;8.748;2023-07-09T02:31:48;17.67;;;6.28;;
6626;SDS011;3349;49.830;8.748;2023-07-09T02:34:15;17.77;;;5.65;;
6626;SDS011;3349;49.830;8.748;2023-07-09T02:36:42;16.55;;;6.40;;
6626;SDS011;3349;49.830;8.748;2023-07-09T02:39:09;15.60;;;5.75;;
6626;SDS011;3349;49.830;8.748;2023-07-09T02:41:36;16.33;;;6.75;;
6626;SDS011;3349;49.830;8.748;2023-07-09T02:44:03;18.70;;;5.93;;
6626;SDS011;3349;49.830;8.748;2023-07-09T02:46:31;19.42;;;6.40;;
6626;SDS011;3349;49.830;8.748;2023-07-09T02:48:59;15.23;;;5.82;;
6626;SDS011;3349;49.830;8.748;2023-07-09T02:51:26;17.77;;;6.03;;
6626;SDS011;3349;49.830;8.748;2023-07-09T02:53:53;25.63;;;6.32;;
6626;SDS011;3349;49.830;8.748;2023-07-09T02:56:20;23.90;;;6.20;;
6626;SDS011;3349;49.830;8.748;2023-07-09T02:58:47;17.83;;;5.93;;
6626;SDS011;3349;49.830;8.748;2023-07-09T03:01:15;22.60;;;6.53;;
6626;SDS011;3349;49.830;8.748;2023-07-09T03:03:43;15.88;;;5.68;;
6626;SDS011;3349;49.830;8.748;2023-07-09T03:06:10;18.90;;;5.88;;
6626;SDS011;3349;49.830;8.748;2023-07-09T03:08:37;18.08;;;6.05;;
6626;SDS011;3349;49.830;8.748;2023-07-09T03:11:10;20.95;;;6.13;;
6626;SDS011;3349;49.830;8.748;2023-07-09T03:13:37;15.07;;;5.25;;
6626;SDS011;3349;49.830;8.748;2023-07-09T03:16:04;17.55;;;5.95;;
6626;SDS011;3349;49.830;8.748;2023-07-09T03:18:31;13.75;;;5.45;;
6626;SDS011;3349;49.830;8.748;2023-07-09T03:20:59;17.10;;;5.63;;
6626;SDS011;3349;49.830;8.748;2023-07-09T03:23:26;13.93;;;5.50;;
6626;SDS011;3349;49.830;8.748;2023-07-09T03:25:54;16.35;;;5.80;;
6626;SDS011;3349;49.830;8.748;2023-07-09T03:28:22;13.88;;;5.35;;
6626;SDS011;3349;49.830;8.748;2023-07-09T03:30:49;16.45;;;5.72;;
6626;SDS011;3349;49.830;8.748;2023-07-09T03:33:19;12.50;;;5.82;;
6626;SDS011;3349;49.830;8.748;2023-07-09T03:35:45;14.13;;;5.80;;
6626;SDS011;3349;49.830;8.748;2023-07-09T03:38:13;20.48;;;6.03;;
6626;SDS011;3349;49.830;8.748;2023-07-09T03:40:40;13.02;;;6.05;;
6626;SDS011;3349;49.830;8.748;2023-07-09T03:43:08;13.43;;;5.70;;
6626;SDS011;3349;49.830;8.748;2023-07-09T03:45:36;14.10;;;5.55;;
6626;SDS011;3349;49.830;8.748;2023-07-09T03:48:04;14.55;;;5.43;;
6626;SDS011;3349;49.830;8.748;2023-07-09T03:50:32;16.75;;;5.63;;
6626;SDS011;3349;49.830;8.748;2023-07-09T03:52:58;16.20;;;5.43;;
6626;SDS011;3349;49.830;8.748;2023-07-09T03:55:26;14.85;;;5.47;;
6626;SDS011;3349;49.830;8.748;2023-07-09T03:57:53;13.32;;;5.43;;
6626;SDS011;3349;49.830;8.748;2023-07-09T04:00:20;16.30;;;6.28;;
6626;SDS011;3349;49.830;8.748;2023-07-09T04:02:47;10.65;;;5.38;;
6626;SDS011;3349;49.830;8.748;2023-07-09T04:05:15;13.68;;;5.47;;
6626;SDS011;3349;49.830;8.748;2023-07-09T04:07:42;13.68;;;5.47;;
6626;SDS011;3349;49.830;8.748;2023-07-09T04:10:10;12.98;;;5.93;;
6626;SDS011;3349;49.830;8.748;2023-07-09T04:12:38;14.07;;;5.10;;
6626;SDS011;3349;49.830;8.748;2023-07-09T04:15:05;11.70;;;5.88;;
6626;SDS011;3349;49.830;8.748;2023-07-09T04:17:33;9.80;;;5.35;;
6626;SDS011;3349;49.830;8.748;2023-07-09T04:19:59;16.48;;;5.28;;
6626;SDS011;3349;49.830;8.748;2023-07-09T04:22:28;10.35;;;5.32;;
6626;SDS011;3349;49.830;8.748;2023-07-09T04:24:54;13.50;;;5.65;;
6626;SDS011;3349;49.830;8.748;2023-07-09T04:27:23;13.85;;;5.38;;
6626;SDS011;3349;49.830;8.748;2023-07-09T04:29:53;12.93;;;5.40;;
6626;SDS011;3349;49.830;8.748;2023-07-09T04:32:21;13.32;;;5.63;;
6626;SDS011;3349;49.830;8.748;2023-07-09T04:34:48;15.27;;;5.63;;
6626;SDS011;3349;49.830;8.748;2023-07-09T04:37:16;12.43;;;5.38;;
6626;SDS011;3349;49.830;8.748;2023-07-09T04:39:44;12.65;;;5.80;;
6626;SDS011;3349;49.830;8.748;2023-07-09T04:42:13;12.60;;;5.75;;
6626;SDS011;3349;49.830;8.748;2023-07-09T04:44:41;12.88;;;6.40;;
6626;SDS011;3349;49.830;8.748;2023-07-09T04:47:10;13.35;;;5.32;;
6626;SDS011;3349;49.830;8.748;2023-07-09T04:49:37;16.83;;;6.18;;
6626;SDS011;3349;49.830;8.748;2023-07-09T04:52:05;14.02;;;6.18;;
6626;SDS011;3349;49.830;8.748;2023-07-09T04:54:32;11.45;;;5.57;;
6626;SDS011;3349;49.830;8.748;2023-07-09T04:56:59;13.27;;;5.38;;
6626;SDS011;3349;49.830;8.748;2023-07-09T04:59:27;11.07;;;5.55;;
6626;SDS011;3349;49.830;8.748;2023-07-09T05:01:53;14.35;;;5.95;;
6626;SDS011;3349;49.830;8.748;2023-07-09T05:04:21;13.75;;;5.78;;
6626;SDS011;3349;49.830;8.748;2023-07-09T05:06:48;11.60;;;4.97;;
6626;SDS011;3349;49.830;8.748;2023-07-09T05:09:15;16.58;;;5.78;;
6626;SDS011;3349;49.830;8.748;2023-07-09T05:11:41;7.60;;;5.32;;
6626;SDS011;3349;49.830;8.748;2023-07-09T05:14:08;15.30;;;5.43;;
6626;SDS011;3349;49.830;8.748;2023-07-09T05:16:35;16.73;;;5.47;;
6626;SDS011;3349;49.830;8.748;2023-07-09T05:19:01;12.93;;;5.20;;
6626;SDS011;3349;49.830;8.748;2023-07-09T05:21:30;12.35;;;5.45;;
6626;SDS011;3349;49.830;8.748;2023-07-09T05:23:57;12.77;;;4.90;;
6626;SDS011;3349;49.830;8.748;2023-07-09T05:26:24;11.85;;;5.65;;
6626;SDS011;3349;49.830;8.748;2023-07-09T05:28:51;10.20;;;5.15;;
6626;SDS011;3349;49.830;8.748;2023-07-09T05:31:18;12.98;;;5.90;;
6626;SDS011;3349;49.830;8.748;2023-07-09T05:33:44;9.23;;;5.22;;
6626;SDS011;3349;49.830;8.748;2023-07-09T05:36:11;12.52;;;5.50;;
6626;SDS011;3349;49.830;8.748;2023-07-09T05:38:42;10.70;;;5.50;;
6626;SDS011;3349;49.830;8.748;2023-07-09T05:41:10;9.63;;;5.40;;
6626;SDS011;3349;49.830;8.748;2023-07-09T05:43:37;10.82;;;5.80;;
6626;SDS011;3349;49.830;8.748;2023-07-09T05:46:05;8.93;;;5.38;;
6626;SDS011;3349;49.830;8.748;2023-07-09T05:48:32;11.18;;;5.43;;
6626;SDS011;3349;49.830;8.748;2023-07-09T05:50:58;14.88;;;6.30;;
6626;SDS011;3349;49.830;8.748;2023-07-09T05:53:25;9.57;;;5.30;;
6626;SDS011;3349;49.830;8.748;2023-07-09T05:55:54;13.05;;;5.55;;
6626;SDS011;3349;49.830;8.748;2023-07-09T05:58:21;7.43;;;5.80;;
6626;SDS011;3349;49.830;8.748;2023-07-09T06:00:49;10.43;;;5.90;;
6626;SDS011;3349;49.830;8.748;2023-07-09T06:03:18;9.73;;;4.85;;
6626;SDS011;3349;49.830;8.748;2023-07-09T06:05:45;8.52;;;5.57;;
6626;SDS011;3349;49.830;8.748;2023-07-09T06:08:14;8.10;;;5.40;;
6626;SDS011;3349;49.830;8.748;2023-07-09T06:10:49;10.40;;;5.93;;
6626;SDS011;3349;49.830;8.748;2023-07-09T06:13:18;9.02;;;5.47;;
6626;SDS011;3349;49.830;8.748;2023-07-09T06:15:45;10.80;;;6.03;;
6626;SDS011;3349;49.830;8.748;2023-07-09T06:18:12;8.18;;;5.72;;
6626;SDS011;3349;49.830;8.748;2023-07-09T06:20:39;9.25;;;5.32;;
6626;SDS011;3349;49.830;8.748;2023-07-09T06:23:06;8.98;;;5.45;;
6626;SDS011;3349;49.830;8.748;2023-07-09T06:25:33;8.02;;;4.97;;
6626;SDS011;3349;49.830;8.748;2023-07-09T06:28:00;8.93;;;5.47;;
6626;SDS011;3349;49.830;8.748;2023-07-09T06:30:28;11.13;;;5.68;;
6626;SDS011;3349;49.830;8.748;2023-07-09T06:32:54;7.80;;;5.65;;
6626;SDS011;3349;49.830;8.748;2023-07-09T06:35:21;8.48;;;5.25;;
6626;SDS011;3349;49.830;8.748;2023-07-09T06:37:48;8.25;;;5.50;;
6626;SDS011;3349;49.830;8.748;2023-07-09T06:40:15;9.18;;;5.40;;
6626;SDS011;3349;49.830;8.748;2023-07-09T06:42:42;6.38;;;4.70;;
6626;SDS011;3349;49.830;8.748;2023-07-09T06:45:09;7.10;;;5.43;;
6626;SDS011;3349;49.830;8.748;2023-07-09T06:47:37;7.00;;;5.40;;
6626;SDS011;3349;49.830;8.748;2023-07-09T06:50:04;7.90;;;5.75;;
6626;SDS011;3349;49.830;8.748;2023-07-09T06:52:32;8.15;;;5.43;;
6626;SDS011;3349;49.830;8.748;2023-07-09T06:54:58;9.77;;;5.60;;
6626;SDS011;3349;49.830;8.748;2023-07-09T06:57:25;9.48;;;5.93;;
6626;SDS011;3349;49.830;8.748;2023-07-09T06:59:52;6.72;;;5.30;;
6626;SDS011;3349;49.830;8.748;2023-07-09T07:02:19;7.05;;;5.40;;
6626;SDS011;3349;49.830;8.748;2023-07-09T07:04:47;7.45;;;6.10;;
6626;SDS011;3349;49.830;8.748;2023-07-09T07:07:14;11.55;;;6.32;;
6626;SDS011;3349;49.830;8.748;2023-07-09T07:09:41;8.52;;;5.45;;
6626;SDS011;3349;49.830;8.748;2023-07-09T07:12:08;7.28;;;5.60;;
6626;SDS011;3349;49.830;8.748;2023-07-09T07:14:35;7.20;;;5.47;;
6626;SDS011;3349;49.830;8.748;2023-07-09T07:17:01;10.40;;;6.30;;
6626;SDS011;3349;49.830;8.748;2023-07-09T07:19:29;9.45;;;5.75;;
6626;SDS011;3349;49.830;8.748;2023-07-09T07:21:57;7.15;;;5.40;;
6626;SDS011;3349;49.830;8.748;2023-07-09T07:24:23;6.30;;;5.32;;
6626;SDS011;3349;49.830;8.748;2023-07-09T07:26:50;7.88;;;5.68;;
6626;SDS011;3349;49.830;8.748;2023-07-09T07:29:17;14.98;;;6.25;;
6626;SDS011;3349;49.830;8.748;2023-07-09T07:31:44;9.10;;;5.53;;
6626;SDS011;3349;49.830;8.748;2023-07-09T07:34:10;9.15;;;5.75;;
6626;SDS011;3349;49.830;8.748;2023-07-09T07:36:37;7.20;;;6.00;;
6626;SDS011;3349;49.830;8.748;2023-07-09T07:39:05;6.32;;;5.72;;
6626;SDS011;3349;49.830;8.748;2023-07-09T07:41:32;6.15;;;5.47;;
6626;SDS011;3349;49.830;8.748;2023-07-09T07:43:59;8.27;;;6.30;;
6626;SDS011;3349;49.830;8.748;2023-07-09T07:46:25;7.30;;;5.57;;
6626;SDS011;3349;49.830;8.748;2023-07-09T07:48:54;6.38;;;5.43;;
6626;SDS011;3349;49.830;8.748;2023-07-09T07:51:20;6.97;;;5.72;;
6626;SDS011;3349;49.830;8.748;2023-07-09T07:53:47;7.70;;;5.88;;
6626;SDS011;3349;49.830;8.748;2023-07-09T07:56:16;8.43;;;5.85;;
6626;SDS011;3349;49.830;8.748;2023-07-09T07:58:43;7.82;;;6.00;;
6626;SDS011;3349;49.830;8.748;2023-07-09T08:01:10;10.02;;;5.45;;
6626;SDS011;3349;49.830;8.748;2023-07-09T08:03:37;7.63;;;5.53;;
6626;SDS011;3349;49.830;8.748;2023-07-09T08:06:03;8.13;;;6.35;;
6626;SDS011;3349;49.830;8.748;2023-07-09T08:08:31;8.27;;;6.05;;
6626;SDS011;3349;49.830;8.748;2023-07-09T08:11:01;7.53;;;5.90;;
6626;SDS011;3349;49.830;8.748;2023-07-09T08:13:31;7.07;;;5.80;;
6626;SDS011;3349;49.830;8.748;2023-07-09T08:15:58;7.18;;;5.78;;
6626;SDS011;3349;49.830;8.748;2023-07-09T08:18:25;7.43;;;5.75;;
6626;SDS011;3349;49.830;8.748;2023-07-09T08:20:51;9.02;;;6.22;;
6626;SDS011;3349;49.830;8.748;2023-07-09T08:23:18;7.03;;;5.40;;
6626;SDS011;3349;49.830;8.748;2023-07-09T08:25:51;8.68;;;6.10;;
6626;SDS011;3349;49.830;8.748;2023-07-09T08:28:18;9.15;;;5.75;;
6626;SDS011;3349;49.830;8.748;2023-07-09T08:30:46;7.85;;;6.20;;
6626;SDS011;3349;49.830;8.748;2023-07-09T08:33:13;7.53;;;6.13;;
6626;SDS011;3349;49.830;8.748;2023-07-09T08:35:41;7.00;;;5.65;;
6626;SDS011;3349;49.830;8.748;2023-07-09T08:38:08;8.98;;;6.78;;
6626;SDS011;3349;49.830;8.748;2023-07-09T08:40:38;9.60;;;6.43;;
6626;SDS011;3349;49.830;8.748;2023-07-09T08:45:56;7.50;;;6.15;;
6626;SDS011;3349;49.830;8.748;2023-07-09T08:48:29;6.90;;;6.20;;
6626;SDS011;3349;49.830;8.748;2023-07-09T08:50:58;6.55;;;5.95;;
6626;SDS011;3349;49.830;8.748;2023-07-09T08:53:31;7.32;;;6.18;;
6626;SDS011;3349;49.830;8.748;2023-07-09T08:56:02;7.15;;;6.45;;
6626;SDS011;3349;49.830;8.748;2023-07-09T08:58:29;7.93;;;7.13;;
6626;SDS011;3349;49.830;8.748;2023-07-09T09:00:59;7.68;;;6.88;;
6626;SDS011;3349;49.830;8.748;2023-07-09T09:03:30;7.72;;;6.97;;
6626;SDS011;3349;49.830;8.748;2023-07-09T09:06:03;6.93;;;6.32;;
6626;SDS011;3349;49.830;8.748;2023-07-09T09:08:38;10.13;;;6.78;;
6626;SDS011;3349;49.830;8.748;2023-07-09T09:11:08;7.65;;;6.88;;
6626;SDS011;3349;49.830;8.748;2023-07-09T09:13:40;11.35;;;6.78;;
6626;SDS011;3349;49.830;8.748;2023-07-09T09:16:11;8.18;;;7.35;;
6626;SDS011;3349;49.830;8.748;2023-07-09T09:18:43;8.60;;;7.63;;
6626;SDS011;3349;49.830;8.748;2023-07-09T09:21:14;8.70;;;6.60;;
6626;SDS011;3349;49.830;8.748;2023-07-09T09:23:48;7.57;;;6.95;;
6626;SDS011;3349;49.830;8.748;2023-07-09T09:26:18;8.23;;;7.53;;
6626;SDS011;3349;49.830;8.748;2023-07-09T09:28:50;8.68;;;7.07;;
6626;SDS011;3349;49.830;8.748;2023-07-09T09:31:18;8.68;;;7.63;;
6626;SDS011;3349;49.830;8.748;2023-07-09T09:33:46;9.25;;;7.63;;
6626;SDS011;3349;49.830;8.748;2023-07-09T09:36:15;7.63;;;6.93;;
6626;SDS011;3349;49.830;8.748;2023-07-09T09:38:44;8.52;;;7.40;;
6626;SDS011;3349;49.830;8.748;2023-07-09T09:41:12;7.93;;;7.13;;
6626;SDS011;3349;49.830;8.748;2023-07-09T09:43:41;8.73;;;7.65;;
6626;SDS011;3349;49.830;8.748;2023-07-09T09:46:09;8.27;;;7.57;;
6626;SDS011;3349;49.830;8.748;2023-07-09T09:48:47;8.30;;;7.38;;
6626;SDS011;3349;49.830;8.748;2023-07-09T09:51:15;8.70;;;7.40;;
6626;SDS011;3349;49.830;8.748;2023-07-09T09:53:45;8.55;;;7.32;;
6626;SDS011;3349;49.830;8.748;2023-07-09T09:56:15;8.65;;;7.90;;
6626;SDS011;3349;49.830;8.748;2023-07-09T09:58:45;9.07;;;8.13;;
6626;SDS011;3349;49.830;8.748;2023-07-09T10:01:13;9.07;;;8.18;;
6626;SDS011;3349;49.830;8.748;2023-07-09T10:03:46;8.75;;;7.82;;
6626;SDS011;3349;49.830;8.748;2023-07-09T10:06:15;8.23;;;7.45;;
6626;SDS011;3349;49.830;8.748;2023-07-09T10:08:46;9.93;;;7.97;;
6626;SDS011;3349;49.830;8.748;2023-07-09T10:11:23;7.80;;;7.22;;
6626;SDS011;3349;49.830;8.748;2023-07-09T10:13:59;8.07;;;7.28;;
6626;SDS011;3349;49.830;8.748;2023-07-09T10:16:32;8.55;;;7.72;;
6626;SDS011;3349;49.830;8.748;2023-07-09T10:19:12;8.10;;;7.40;;
6626;SDS011;3349;49.830;8.748;2023-07-09T10:21:45;8.30;;;7.25;;
6626;SDS011;3349;49.830;8.748;2023-07-09T10:24:22;8.32;;;7.53;;
6626;SDS011;3349;49.830;8.748;2023-07-09T10:27:00;9.90;;;7.68;;
6626;SDS011;3349;49.830;8.748;2023-07-09T10:29:40;7.45;;;6.85;;
6626;SDS011;3349;49.830;8.748;2023-07-09T10:32:20;8.73;;;7.82;;
6626;SDS011;3349;49.830;8.748;2023-07-09T10:34:57;7.95;;;7.07;;
6626;SDS011;3349;49.830;8.748;2023-07-09T10:40:31;8.80;;;6.78;;
6626;SDS011;3349;49.830;8.748;2023-07-09T10:43:02;6.97;;;6.38;;
6626;SDS011;3349;49.830;8.748;2023-07-09T10:45:31;7.65;;;6.95;;
6626;SDS011;3349;49.830;8.748;2023-07-09T10:48:03;7.50;;;6.90;;
6626;SDS011;3349;49.830;8.748;2023-07-09T10:50:36;8.52;;;7.68;;
6626;SDS011;3349;49.830;8.748;2023-07-09T10:53:07;8.57;;;7.40;;
6626;SDS011;3349;49.830;8.748;2023-07-09T10:55:39;7.88;;;7.18;;
6626;SDS011;3349;49.830;8.748;2023-07-09T10:58:19;8.18;;;7.43;;
6626;SDS011;3349;49.830;8.748;2023-07-09T11:00:50;8.23;;;6.55;;
6626;SDS011;3349;49.830;8.748;2023-07-09T11:03:19;7.43;;;6.82;;
6626;SDS011;3349;49.830;8.748;2023-07-09T11:05:51;8.00;;;7.22;;
6626;SDS011;3349;49.830;8.748;2023-07-09T11:08:18;8.38;;;7.57;;
6626;SDS011;3349;49.830;8.748;2023-07-09T11:10:50;10.80;;;7.63;;
6626;SDS011;3349;49.830;8.748;2023-07-09T11:13:19;7.45;;;6.85;;
6626;SDS011;3349;49.830;8.748;2023-07-09T11:15:51;8.95;;;6.60;;
6626;SDS011;3349;49.830;8.748;2023-07-09T11:18:22;7.65;;;6.95;;
6626;SDS011;3349;49.830;8.748;2023-07-09T11:20:58;9.90;;;7.30;;
6626;SDS011;3349;49.830;8.748;2023-07-09T11:23:38;7.78;;;7.07;;
6626;SDS011;3349;49.830;8.748;2023-07-09T11:26:11;7.47;;;6.78;;
6626;SDS011;3349;49.830;8.748;2023-07-09T11:28:40;7.18;;;6.35;;
6626;SDS011;3349;49.830;8.748;2023-07-09T11:31:08;7.53;;;6.82;;
6626;SDS011;3349;49.830;8.748;2023-07-09T11:33:47;7.93;;;7.13;;
6626;SDS011;3349;49.830;8.748;2023-07-09T11:36:23;7.78;;;7.07;;
6626;SDS011;3349;49.830;8.748;2023-07-09T11:38:52;9.88;;;7.68;;
6626;SDS011;3349;49.830;8.748;2023-07-09T11:41:25;7.05;;;6.45;;
6626;SDS011;3349;49.830;8.748;2023-07-09T11:44:00;7.30;;;6.63;;
6626;SDS011;3349;49.830;8.748;2023-07-09T11:46:30;7.70;;;6.97;;
6626;SDS011;3349;49.830;8.748;2023-07-09T11:49:01;8.68;;;7.43;;
6626;SDS011;3349;49.830;8.748;2023-07-09T11:51:34;7.55;;;6.97;;
6626;SDS011;3349;49.830;8.748;2023-07-09T11:54:04;7.57;;;6.93;;
6626;SDS011;3349;49.830;8.748;2023-07-09T11:56:32;7.97;;;7.20;;
6626;SDS011;3349;49.830;8.748;2023-07-09T11:58:58;8.70;;;6.88;;
6626;SDS011;3349;49.830;8.748;2023-07-09T12:01:26;8.00;;;7.03;;
6626;SDS011;3349;49.830;8.748;2023-07-09T12:04:09;8.20;;;7.50;;
6626;SDS011;3349;49.830;8.748;2023-07-09T12:06:41;8.32;;;6.85;;
6626;SDS011;3349;49.830;8.748;2023-07-09T12:09:09;7.57;;;6.88;;
6626;SDS011;3349;49.830;8.748;2023-07-09T12:11:43;8.30;;;7.60;;
6626;SDS011;3349;49.830;8.748;2023-07-09T12:14:11;7.55;;;6.95;;
6626;SDS011;3349;49.830;8.748;2023-07-09T12:16:40;7.82;;;6.97;;
6626;SDS011;3349;49.830;8.748;2023-07-09T12:19:10;8.50;;;7.70;;
6626;SDS011;3349;49.830;8.748;2023-07-09T12:21:39;8.13;;;7.32;;
6626;SDS011;3349;49.830;8.748;2023-07-09T12:24:18;7.97;;;7.18;;
6626;SDS011;3349;49.830;8.748;2023-07-09T12:26:49;9.68;;;8.93;;
6626;SDS011;3349;49.830;8.748;2023-07-09T12:29:17;7.88;;;7.28;;
6626;SDS011;3349;49.830;8.748;2023-07-09T12:31:44;8.02;;;7.30;;
6626;SDS011;3349;49.830;8.748;2023-07-09T12:34:11;8.65;;;7.88;;
6626;SDS011;3349;49.830;8.748;2023-07-09T12:36:43;8.40;;;7.70;;
6626;SDS011;3349;49.830;8.748;2023-07-09T12:39:12;8.25;;;7.55;;
6626;SDS011;3349;49.830;8.748;2023-07-09T12:41:44;8.23;;;7.53;;
6626;SDS011;3349;49.830;8.748;2023-07-09T12:44:14;8.45;;;7.65;;
6626;SDS011;3349;49.830;8.748;2023-07-09T12:46:43;8.43;;;7.72;;
6626;SDS011;3349;49.830;8.748;2023-07-09T12:49:15;8.45;;;7.40;;
6626;SDS011;3349;49.830;8.748;2023-07-09T12:51:49;7.90;;;7.20;;
6626;SDS011;3349;49.830;8.748;2023-07-09T12:54:16;7.63;;;7.03;;
6626;SDS011;3349;49.830;8.748;2023-07-09T12:56:46;7.90;;;7.07;;
6626;SDS011;3349;49.830;8.748;2023-07-09T12:59:17;7.70;;;7.10;;
6626;SDS011;3349;49.830;8.748;2023-07-09T13:01:49;8.98;;;6.82;;
6626;SDS011;3349;49.830;8.748;2023-07-09T13:04:20;7.75;;;6.95;;
6626;SDS011;3349;49.830;8.748;2023-07-09T13:06:49;7.32;;;6.63;;
6626;SDS011;3349;49.830;8.748;2023-07-09T13:09:19;8.15;;;7.20;;
6626;SDS011;3349;49.830;8.748;2023-07-09T13:11:47;7.95;;;6.43;;
6626;SDS011;3349;49.830;8.748;2023-07-09T13:14:18;7.65;;;6.95;;
6626;SDS011;3349;49.830;8.748;2023-07-09T13:16:46;7.80;;;7.10;;
6626;SDS011;3349;49.830;8.748;2023-07-09T13:19:13;7.18;;;6.57;;
6626;SDS011;3349;49.830;8.748;2023-07-09T13:21:40;7.38;;;6.75;;
6626;SDS011;3349;49.830;8.748;2023-07-09T13:24:12;8.32;;;7.40;;
6626;SDS011;3349;49.830;8.748;2023-07-09T13:26:48;8.13;;;7.32;;
6626;SDS011;3349;49.830;8.748;2023-07-09T13:29:17;8.23;;;6.53;;
6626;SDS011;3349;49.830;8.748;2023-07-09T13:31:45;9.20;;;7.20;;
6626;SDS011;3349;49.830;8.748;2023-07-09T13:34:23;8.07;;;6.40;;
6626;SDS011;3349;49.830;8.748;2023-07-09T13:36:52;8.38;;;6.20;;
6626;SDS011;3349;49.830;8.748;2023-07-09T13:39:22;8.90;;;6.18;;
6626;SDS011;3349;49.830;8.748;2023-07-09T13:41:50;7.55;;;6.35;;
6626;SDS011;3349;49.830;8.748;2023-07-09T13:44:19;9.98;;;5.75;;
6626;SDS011;3349;49.830;8.748;2023-07-09T13:46:47;6.95;;;5.63;;
6626;SDS011;3349;49.830;8.748;2023-07-09T13:49:14;6.90;;;5.90;;
6626;SDS011;3349;49.830;8.748;2023-07-09T13:51:43;10.32;;;5.82;;
6626;SDS011;3349;49.830;8.748;2023-07-09T13:54:13;6.82;;;5.72;;
6626;SDS011;3349;49.830;8.748;2023-07-09T13:56:43;6.43;;;5.53;;
6626;SDS011;3349;49.830;8.748;2023-07-09T13:59:12;8.50;;;6.07;;
6626;SDS011;3349;49.830;8.748;2023-07-09T14:01:41;8.20;;;5.68;;
6626;SDS011;3349;49.830;8.748;2023-07-09T14:04:08;6.43;;;5.45;;
6626;SDS011;3349;49.830;8.748;2023-07-09T14:06:36;9.43;;;6.32;;
6626;SDS011;3349;49.830;8.748;2023-07-09T14:09:04;6.25;;;5.40;;
6626;SDS011;3349;49.830;8.748;2023-07-09T14:11:31;7.43;;;5.65;;
6626;SDS011;3349;49.830;8.748;2023-07-09T14:13:59;6.05;;;5.50;;
6626;SDS011;3349;49.830;8.748;2023-07-09T14:16:26;6.70;;;4.88;;
6626;SDS011;3349;49.830;8.748;2023-07-09T14:18:53;6.95;;;5.25;;
6626;SDS011;3349;49.830;8.748;2023-07-09T14:21:21;9.25;;;5.68;;
6626;SDS011;3349;49.830;8.748;2023-07-09T14:23:51;7.05;;;5.15;;
6626;SDS011;3349;49.830;8.748;2023-07-09T14:26:18;6.82;;;5.55;;
6626;SDS011;3349;49.830;8.748;2023-07-09T14:28:45;8.27;;;5.38;;
6626;SDS011;3349;49.830;8.748;2023-07-09T14:31:20;10.50;;;5.25;;
6626;SDS011;3349;49.830;8.748;2023-07-09T14:33:49;5.82;;;4.80;;
6626;SDS011;3349;49.830;8.748;2023-07-09T14:36:16;7.50;;;5.38;;
6626;SDS011;3349;49.830;8.748;2023-07-09T14:38:42;7.50;;;5.30;;
6626;SDS011;3349;49.830;8.748;2023-07-09T14:41:16;8.80;;;5.00;;
6626;SDS011;3349;49.830;8.748;2023-07-09T14:43:53;6.47;;;5.43;;
6626;SDS011;3349;49.830;8.748;2023-07-09T14:46:23;8.73;;;5.60;;
6626;SDS011;3349;49.830;8.748;2023-07-09T14:48:50;8.23;;;5.35;;
6626;SDS011;3349;49.830;8.748;2023-07-09T14:51:17;7.80;;;5.60;;
6626;SDS011;3349;49.830;8.748;2023-07-09T14:53:44;8.00;;;4.88;;
6626;SDS011;3349;49.830;8.748;2023-07-09T14:56:12;6.10;;;5.43;;
6626;SDS011;3349;49.830;8.748;2023-07-09T14:58:40;8.23;;;5.22;;
6626;SDS011;3349;49.830;8.748;2023-07-09T15:01:09;7.60;;;5.35;;
6626;SDS011;3349;49.830;8.748;2023-07-09T15:03:38;6.10;;;5.50;;
6626;SDS011;3349;49.830;8.748;2023-07-09T15:06:05;6.63;;;5.50;;
6626;SDS011;3349;49.830;8.748;2023-07-09T15:08:32;6.13;;;5.07;;
6626;SDS011;3349;49.830;8.748;2023-07-09T15:10:59;5.28;;;4.75;;
6626;SDS011;3349;49.830;8.748;2023-07-09T15:13:27;6.68;;;5.25;;
6626;SDS011;3349;49.830;8.748;2023-07-09T15:15:57;7.00;;;5.10;;
6626;SDS011;3349;49.830;8.748;2023-07-09T15:18:24;6.03;;;4.97;;
6626;SDS011;3349;49.830;8.748;2023-07-09T15:20:53;6.43;;;4.60;;
6626;SDS011;3349;49.830;8.748;2023-07-09T15:23:22;6.57;;;5.18;;
6626;SDS011;3349;49.830;8.748;2023-07-09T15:25:50;7.20;;;4.78;;
6626;SDS011;3349;49.830;8.748;2023-07-09T15:28:17;6.65;;;4.65;;
6626;SDS011;3349;49.830;8.748;2023-07-09T15:30:44;5.32;;;4.82;;